Time;durP1;ratioP1;P1;durP2;ratioP2;P2;SDS_P1;SDS_P2;PMS_P1;PMS_P2;Temp;Humidity;BMP_temperature;BMP_pressure;BME280_temperature;BME280_humidity;BME280_pressure;Samples;Min_cycle;Max_cycle;Signal;HPM_P1;HPM_P2
2021/09/30 00:00:48;;;;;;;2.75;1.35;;;19.80;96.70;;;;;;5087327;28;20044;-78
2021/09/30 00:03:16;;;;;;;6.43;1.63;;;19.80;96.70;;;;;;5084069;28;20040;-78
2021/09/30 00:05:44;;;;;;;4.00;1.35;;;19.80;96.70;;;;;;5087412;28;20040;-78
2021/09/30 00:08:13;;;;;;;3.05;1.20;;;19.80;96.70;;;;;;5084184;28;20649;-78
2021/09/30 00:10:50;;;;;;;2.95;1.30;;;19.90;96.70;;;;;;5084635;28;20501;-78
2021/09/30 00:35:36;;;;;;;2.75;1.25;;;19.70;96.70;;;;;;5103541;28;20044;-78
2021/09/30 00:52:49;;;;;;;3.40;1.00;;;19.50;96.70;;;;;;5082513;28;20142;-78
2021/09/30 00:55:50;;;;;;;2.40;1.00;;;19.50;96.70;;;;;;5080875;28;20046;-78
2021/09/30 01:59:22;;;;;;;4.57;1.58;;;19.50;96.70;;;;;;5078011;28;20505;-78
2021/09/30 02:22:01;;;;;;;2.85;1.52;;;19.20;96.70;;;;;;5084883;28;20570;-78
2021/09/30 02:24:57;;;;;;;3.58;1.70;;;19.10;96.70;;;;;;5100454;28;20142;-78
2021/09/30 02:39:11;;;;;;;1.95;1.17;;;19.10;96.70;;;;;;5082609;28;20555;-78
2021/09/30 02:59:15;;;;;;;4.55;1.20;;;19.00;96.70;;;;;;5080133;28;20139;-78
2021/09/30 03:01:50;;;;;;;;;;;18.90;96.70;;;;;;5069094;28;20047;-79
2021/09/30 03:04:21;;;;;;;1.67;1.20;;;18.80;96.70;;;;;;5079564;28;19928;-79
2021/09/30 03:06:52;;;;;;;3.13;1.00;;;18.90;96.70;;;;;;5101565;28;20059;-80
2021/09/30 03:09:37;;;;;;;3.45;0.98;;;18.90;96.70;;;;;;5084673;28;20036;-79
2021/09/30 03:12:17;;;;;;;4.68;1.10;;;18.80;96.70;;;;;;5081864;28;20466;-80
2021/09/30 03:14:59;;;;;;;1.65;1.02;;;18.70;96.70;;;;;;5082320;28;20451;-79
2021/09/30 03:17:42;;;;;;;4.20;1.30;;;18.70;96.70;;;;;;5078950;28;20663;-80
2021/09/30 03:23:11;;;;;;;5.35;1.40;;;18.70;96.70;;;;;;5081884;28;20412;-79
2021/09/30 03:25:47;;;;;;;3.25;1.17;;;18.70;96.70;;;;;;5084983;28;20045;-79
2021/09/30 03:28:21;;;;;;;3.03;1.15;;;18.70;96.70;;;;;;5082693;28;20075;-79
2021/09/30 03:30:53;;;;;;;3.88;1.30;;;18.80;96.70;;;;;;5065884;28;20044;-80
2021/09/30 03:33:24;;;;;;;2.97;1.15;;;18.80;96.70;;;;;;5080553;28;20036;-79
2021/09/30 03:36:11;;;;;;;2.58;0.90;;;18.80;96.70;;;;;;5082243;28;20048;-79
2021/09/30 03:38:39;;;;;;;3.10;1.38;;;18.80;96.70;;;;;;5066752;28;20525;-78
2021/09/30 03:45:08;;;;;;;3.38;1.00;;;18.80;96.70;;;;;;5077638;28;20468;-79
2021/09/30 03:47:41;;;;;;;3.03;1.10;;;18.80;96.70;;;;;;5082180;28;20040;-79
2021/09/30 03:50:18;;;;;;;6.65;1.35;;;18.70;96.70;;;;;;5079859;28;20156;-79
2021/09/30 04:01:34;;;;;;;2.45;1.00;;;18.60;96.70;;;;;;5082338;28;20047;-78
2021/09/30 04:04:25;;;;;;;2.90;1.15;;;18.60;96.70;;;;;;5098337;28;20430;-79
2021/09/30 04:07:13;;;;;;;3.90;1.15;;;18.60;96.70;;;;;;5083643;28;20051;-78
2021/09/30 04:09:45;;;;;;;4.97;1.02;;;18.50;96.70;;;;;;5081610;28;20051;-78
2021/09/30 04:12:15;;;;;;;3.08;0.80;;;18.50;96.70;;;;;;5083367;28;20054;-78
2021/09/30 04:14:46;;;;;;;3.45;1.40;;;18.30;96.70;;;;;;5079099;28;20043;-77
2021/09/30 04:17:18;;;;;;;2.15;1.13;;;18.30;96.70;;;;;;5065071;28;20417;-78
2021/09/30 04:19:48;;;;;;;3.10;1.25;;;18.30;96.70;;;;;;5078883;28;20046;-78
2021/09/30 04:22:18;;;;;;;1.90;1.20;;;18.30;96.70;;;;;;5082335;28;20126;-78
2021/09/30 04:24:49;;;;;;;3.20;1.40;;;18.30;96.70;;;;;;5082491;28;21139;-78
2021/09/30 04:27:19;;;;;;;3.40;1.40;;;18.30;96.70;;;;;;5077041;28;20138;-78
2021/09/30 04:29:51;;;;;;;6.72;1.65;;;18.30;96.70;;;;;;5081211;28;20048;-78
2021/09/30 04:32:22;;;;;;;5.10;1.40;;;18.20;96.70;;;;;;5059468;28;20394;-78
2021/09/30 04:34:52;;;;;;;3.10;1.55;;;18.20;96.70;;;;;;5079926;28;20321;-78
2021/09/30 04:37:23;;;;;;;5.00;1.50;;;18.30;96.70;;;;;;5081365;28;20375;-78
2021/09/30 04:39:54;;;;;;;2.53;1.40;;;18.30;96.70;;;;;;5080824;28;20063;-78
2021/09/30 04:42:24;;;;;;;2.85;1.45;;;18.30;96.70;;;;;;5083422;28;20040;-78
2021/09/30 04:44:54;;;;;;;2.92;1.30;;;18.30;96.70;;;;;;5082409;28;20040;-78
2021/09/30 04:47:27;;;;;;;5.60;1.77;;;18.30;96.70;;;;;;5078012;28;20040;-78
2021/09/30 04:50:26;;;;;;;2.53;1.30;;;18.40;96.70;;;;;;5024277;28;20096;-78
2021/09/30 04:53:00;;;;;;;4.43;1.45;;;18.30;96.70;;;;;;5024743;28;20046;-78
2021/09/30 04:55:35;;;;;;;5.10;2.15;;;18.40;96.70;;;;;;4988683;28;20073;-78
2021/09/30 04:58:03;;;;;;;4.93;2.10;;;18.40;96.70;;;;;;5023935;28;20041;-78
2021/09/30 05:00:33;;;;;;;6.43;2.47;;;18.40;96.70;;;;;;5002720;28;20045;-78
2021/09/30 05:03:19;;;;;;;3.30;2.17;;;18.40;96.70;;;;;;5002976;28;20100;-78
2021/09/30 05:05:48;;;;;;;4.70;2.05;;;18.40;96.70;;;;;;5003098;28;20132;-78
2021/09/30 05:08:16;;;;;;;4.60;2.17;;;18.30;96.70;;;;;;5005287;28;20052;-78
2021/09/30 05:10:46;;;;;;;3.53;2.15;;;18.30;96.70;;;;;;5023121;28;20044;-78
2021/09/30 05:13:22;;;;;;;5.50;2.28;;;18.40;96.70;;;;;;5008683;28;20072;-78
2021/09/30 05:15:51;;;;;;;;;;;18.30;96.70;;;;;;4989694;28;20137;-77
2021/09/30 05:18:52;;;;;;;6.40;2.45;;;18.30;96.70;;;;;;5018662;28;19925;-78
2021/09/30 05:21:21;;;;;;;5.90;2.75;;;18.20;96.70;;;;;;5024714;28;20469;-78
2021/09/30 05:23:51;;;;;;;7.68;2.97;;;18.30;96.70;;;;;;4988789;28;20049;-78
2021/09/30 05:26:20;;;;;;;9.52;3.67;;;18.30;96.70;;;;;;5018602;28;20404;-78
2021/09/30 05:28:48;;;;;;;8.68;2.75;;;18.30;96.70;;;;;;5080991;28;20047;-78
2021/09/30 05:31:17;;;;;;;8.93;3.00;;;18.30;96.70;;;;;;5080627;28;20067;-78
2021/09/30 05:34:14;;;;;;;9.45;3.80;;;18.20;96.70;;;;;;5084865;28;20415;-78
2021/09/30 05:36:42;;;;;;;10.02;3.53;;;18.30;96.70;;;;;;5081940;28;20044;-78
2021/09/30 05:39:10;;;;;;;12.43;4.43;;;18.20;96.70;;;;;;5084150;28;20048;-78
2021/09/30 05:41:41;;;;;;;11.48;4.40;;;18.30;96.70;;;;;;5069044;28;20413;-78
2021/09/30 05:44:10;;;;;;;14.27;4.45;;;18.40;96.70;;;;;;5083456;28;20842;-78
2021/09/30 05:46:46;;;;;;;11.27;4.10;;;18.30;96.70;;;;;;5061914;28;20049;-78
2021/09/30 05:49:16;;;;;;;15.23;4.53;;;18.40;96.70;;;;;;5067996;28;20097;-78
2021/09/30 05:51:50;;;;;;;11.40;4.00;;;18.40;96.70;;;;;;5069107;28;20404;-78
2021/09/30 05:54:43;;;;;;;9.65;3.90;;;18.40;96.70;;;;;;5082065;28;20049;-78
2021/09/30 05:57:20;;;;;;;7.97;3.05;;;18.40;96.70;;;;;;5056661;28;20592;-78
2021/09/30 05:59:49;;;;;;;9.55;3.15;;;18.40;96.70;;;;;;5065467;28;20102;-79
2021/09/30 06:10:52;;;;;;;4.55;2.17;;;18.50;96.70;;;;;;5076886;28;20476;-79
2021/09/30 06:13:30;;;;;;;6.30;1.70;;;18.50;96.70;;;;;;5081260;28;20048;-78
2021/09/30 06:16:03;;;;;;;4.32;1.83;;;18.40;96.70;;;;;;5063022;28;20717;-78
2021/09/30 06:18:32;;;;;;;3.78;2.03;;;18.50;96.70;;;;;;5064823;28;20063;-78
2021/09/30 06:21:04;;;;;;;5.78;1.83;;;18.50;96.70;;;;;;5063768;28;20064;-77
2021/09/30 06:23:33;;;;;;;7.72;2.10;;;18.40;96.70;;;;;;5077232;28;20059;-78
2021/09/30 06:26:02;;;;;;;3.83;1.73;;;18.40;96.70;;;;;;5060036;28;20051;-79
2021/09/30 06:28:36;;;;;;;3.38;1.65;;;18.40;96.70;;;;;;5080232;28;20398;-78
2021/09/30 06:31:07;;;;;;;6.68;2.08;;;18.50;96.70;;;;;;5043297;28;20044;-79
2021/09/30 06:33:54;;;;;;;5.57;2.35;;;18.50;96.70;;;;;;5064772;28;20051;-78
2021/09/30 06:36:36;;;;;;;6.35;2.20;;;18.50;96.70;;;;;;5080573;28;20047;-79
2021/09/30 06:39:04;;;;;;;6.85;2.42;;;18.50;96.70;;;;;;5080326;28;20048;-78
2021/09/30 06:41:37;;;;;;;3.65;1.88;;;18.50;96.70;;;;;;5079895;28;20596;-79
2021/09/30 06:44:36;;;;;;;7.07;2.95;;;18.50;96.70;;;;;;5075319;28;20145;-78
2021/09/30 06:47:23;;;;;;;13.10;3.75;;;18.60;96.70;;;;;;5062898;28;20492;-78
2021/09/30 06:49:57;;;;;;;13.60;3.97;;;18.60;96.70;;;;;;5063741;28;20046;-79
2021/09/30 06:53:06;;;;;;;10.00;3.90;;;18.70;96.70;;;;;;5063316;28;20048;-78
2021/09/30 06:56:13;;;;;;;15.98;5.43;;;18.70;96.70;;;;;;5068458;28;20051;-80
2021/09/30 06:59:22;;;;;;;11.40;4.97;;;18.70;96.70;;;;;;5078712;28;20055;-79
2021/09/30 07:02:15;;;;;;;12.57;4.80;;;18.80;96.70;;;;;;5081281;28;20064;-79
2021/09/30 07:05:02;;;;;;;12.35;4.55;;;18.90;96.70;;;;;;5085391;28;20055;-79
2021/09/30 07:07:30;;;;;;;10.57;4.20;;;19.00;96.70;;;;;;5084669;28;20525;-79
2021/09/30 07:10:00;;;;;;;10.65;4.82;;;19.00;96.70;;;;;;5083758;28;20044;-78
2021/09/30 07:12:28;;;;;;;7.60;3.75;;;19.10;96.70;;;;;;5097549;28;20043;-78
2021/09/30 07:14:57;;;;;;;8.15;3.42;;;19.20;96.70;;;;;;5083720;28;20042;-78
2021/09/30 07:17:26;;;;;;;9.38;3.20;;;19.20;96.70;;;;;;5083254;28;20543;-78
2021/09/30 07:19:54;;;;;;;7.63;3.58;;;19.30;96.70;;;;;;5084391;28;20040;-78
2021/09/30 07:22:23;;;;;;;8.48;3.60;;;19.40;96.70;;;;;;5082576;28;20056;-78
2021/09/30 07:24:51;;;;;;;8.95;3.92;;;19.40;96.70;;;;;;5083129;28;20115;-79
2021/09/30 07:27:21;;;;;;;9.15;3.55;;;19.50;96.70;;;;;;5084025;28;20035;-78
2021/09/30 07:29:51;;;;;;;8.93;3.97;;;19.50;96.70;;;;;;5083031;28;20091;-79
2021/09/30 07:32:19;;;;;;;8.45;3.92;;;19.50;96.70;;;;;;5084821;28;20074;-78
2021/09/30 07:34:47;;;;;;;6.75;4.00;;;19.60;96.70;;;;;;5081835;28;20044;-79
2021/09/30 07:37:16;;;;;;;9.32;4.68;;;19.50;96.70;;;;;;5083921;28;20435;-79
2021/09/30 07:39:44;;;;;;;10.00;4.78;;;19.60;96.70;;;;;;5084543;28;20135;-78
2021/09/30 07:42:12;;;;;;;11.65;5.32;;;19.70;96.70;;;;;;5099012;28;20067;-78
2021/09/30 07:44:42;;;;;;;10.38;6.45;;;19.80;96.70;;;;;;5082683;28;20447;-78
2021/09/30 07:47:10;;;;;;;9.65;5.72;;;19.90;96.70;;;;;;5080900;28;20062;-78
2021/09/30 07:49:39;;;;;;;9.85;6.63;;;20.00;96.70;;;;;;5082238;28;20040;-78
2021/09/30 07:52:07;;;;;;;10.75;6.40;;;20.10;96.70;;;;;;5082729;28;20120;-78
2021/09/30 07:54:35;;;;;;;12.30;7.40;;;20.20;96.70;;;;;;5083881;28;20595;-78
2021/09/30 07:57:03;;;;;;;10.63;7.95;;;20.30;96.70;;;;;;5081619;28;20040;-78
2021/09/30 07:59:31;;;;;;;11.65;7.75;;;20.40;96.70;;;;;;5082371;28;20501;-78
2021/09/30 08:02:01;;;;;;;10.25;7.00;;;20.40;96.70;;;;;;5083407;28;20127;-78
2021/09/30 08:04:30;;;;;;;11.00;8.02;;;20.40;96.70;;;;;;5083294;28;20040;-78
2021/09/30 08:06:58;;;;;;;10.40;6.95;;;20.50;96.70;;;;;;5063145;28;20050;-77
2021/09/30 08:09:26;;;;;;;11.20;7.40;;;20.60;96.70;;;;;;5080236;28;20513;-78
2021/09/30 08:11:56;;;;;;;7.13;5.97;;;20.60;96.70;;;;;;5066845;28;20044;-77
2021/09/30 08:14:24;;;;;;;8.18;6.80;;;20.70;96.70;;;;;;5082895;28;20047;-78
2021/09/30 08:16:52;;;;;;;11.20;7.32;;;20.80;96.70;;;;;;5083529;28;20040;-78
2021/09/30 08:19:22;;;;;;;9.63;7.35;;;20.90;96.70;;;;;;5083486;28;20048;-78
2021/09/30 08:21:50;;;;;;;8.80;7.32;;;21.00;96.70;;;;;;5083887;28;20132;-78
2021/09/30 08:24:20;;;;;;;9.63;7.18;;;21.10;96.70;;;;;;5064212;28;20135;-78
2021/09/30 08:26:48;;;;;;;10.40;8.10;;;21.20;96.70;;;;;;5082590;28;20048;-78
2021/09/30 08:29:18;;;;;;;11.30;7.32;;;21.30;96.70;;;;;;5081322;28;20036;-78
2021/09/30 08:31:46;;;;;;;12.93;7.88;;;21.30;96.70;;;;;;5081374;28;20171;-79
2021/09/30 08:34:14;;;;;;;12.18;8.18;;;21.40;96.70;;;;;;5080151;28;20044;-78
2021/09/30 08:36:44;;;;;;;15.70;9.00;;;21.50;96.70;;;;;;5065224;28;20036;-78
2021/09/30 08:39:13;;;;;;;14.32;9.43;;;21.50;96.70;;;;;;5083783;28;20058;-78
2021/09/30 08:41:41;;;;;;;11.45;9.38;;;21.60;96.70;;;;;;5084358;28;20040;-79
2021/09/30 08:44:10;;;;;;;12.68;8.30;;;21.60;96.70;;;;;;5080093;28;20040;-78
2021/09/30 08:46:38;;;;;;;13.18;9.10;;;21.70;96.70;;;;;;5078496;28;20382;-78
2021/09/30 08:49:06;;;;;;;11.75;9.23;;;21.80;96.70;;;;;;5064633;28;20062;-79
2021/09/30 08:51:36;;;;;;;12.05;8.93;;;22.00;96.70;;;;;;5089041;28;20417;-79
2021/09/30 08:54:05;;;;;;;12.30;9.52;;;22.00;96.70;;;;;;5081525;28;20063;-79
2021/09/30 08:56:33;;;;;;;14.32;9.52;;;22.10;96.70;;;;;;5083244;28;20420;-78
2021/09/30 08:59:13;;;;;;;13.70;9.52;;;22.10;96.70;;;;;;5083179;28;20084;-79
2021/09/30 09:01:45;;;;;;;11.13;9.32;;;22.20;96.70;;;;;;5070812;28;20047;-78
2021/09/30 09:04:18;;;;;;;11.43;9.57;;;22.30;96.70;;;;;;5102671;28;20050;-78
2021/09/30 09:06:48;;;;;;;15.60;9.98;;;22.40;96.70;;;;;;5084809;28;20143;-79
2021/09/30 09:09:25;;;;;;;16.75;10.60;;;22.50;96.70;;;;;;5080027;28;20052;-78
2021/09/30 09:11:55;;;;;;;12.80;10.23;;;22.60;96.70;;;;;;5100293;28;20142;-78
2021/09/30 09:14:25;;;;;;;15.23;11.25;;;22.60;96.70;;;;;;5067120;28;20040;-78
2021/09/30 09:16:55;;;;;;;14.07;10.82;;;22.70;96.70;;;;;;5085681;28;20459;-79
2021/09/30 09:19:36;;;;;;;14.95;10.63;;;22.70;96.70;;;;;;5103217;28;20047;-79
2021/09/30 09:22:10;;;;;;;16.33;10.77;;;22.80;96.70;;;;;;5082623;28;20077;-79
2021/09/30 09:24:59;;;;;;;10.80;9.20;;;22.90;96.70;;;;;;5082098;28;20496;-79
2021/09/30 09:27:49;;;;;;;11.57;9.00;;;23.00;96.70;;;;;;5101926;28;20407;-79
2021/09/30 09:30:36;;;;;;;12.10;9.05;;;23.10;96.70;;;;;;5082344;28;20467;-79
2021/09/30 09:33:14;;;;;;;11.10;8.32;;;23.20;96.70;;;;;;5084035;28;20036;-78
2021/09/30 09:35:49;;;;;;;11.63;7.90;;;23.30;96.70;;;;;;5102530;28;20039;-79
2021/09/30 09:38:18;;;;;;;12.25;9.05;;;23.40;96.70;;;;;;5101567;28;20495;-79
2021/09/30 09:40:51;;;;;;;9.50;7.80;;;23.50;96.70;;;;;;5083671;28;20032;-79
2021/09/30 09:43:27;;;;;;;8.85;7.80;;;23.60;96.70;;;;;;5098540;28;20050;-79
2021/09/30 09:45:56;;;;;;;11.15;8.05;;;23.60;96.70;;;;;;5084106;28;20048;-79
2021/09/30 09:48:24;;;;;;;8.48;7.18;;;23.80;96.70;;;;;;5083275;28;20039;-78
2021/09/30 09:50:53;;;;;;;7.88;6.95;;;23.90;96.70;;;;;;5102107;28;20039;-79
2021/09/30 09:53:26;;;;;;;8.05;6.50;;;23.90;96.70;;;;;;5067930;28;20039;-79
2021/09/30 09:56:12;;;;;;;7.63;6.57;;;23.90;96.70;;;;;;5100630;28;20079;-78
2021/09/30 09:58:49;;;;;;;8.90;7.18;;;24.00;96.70;;;;;;5099056;28;20082;-78
2021/09/30 10:01:22;;;;;;;7.63;6.82;;;24.20;96.70;;;;;;5084673;28;20051;-79
2021/09/30 10:03:53;;;;;;;11.88;6.25;;;24.20;96.70;;;;;;5080633;28;20410;-79
2021/09/30 10:06:22;;;;;;;7.53;6.43;;;24.40;96.70;;;;;;5101463;28;20467;-80
2021/09/30 10:08:50;;;;;;;7.90;7.10;;;24.50;96.70;;;;;;5085421;28;20036;-80
2021/09/30 10:11:20;;;;;;;8.55;6.53;;;24.60;96.70;;;;;;5067522;28;20073;-80
2021/09/30 10:13:48;;;;;;;7.00;6.30;;;24.70;96.70;;;;;;5081344;28;20035;-79
2021/09/30 10:16:18;;;;;;;9.98;6.57;;;24.80;96.70;;;;;;5068735;28;20735;-79
2021/09/30 10:18:55;;;;;;;7.43;6.57;;;24.80;96.70;;;;;;5070713;28;20047;-79
2021/09/30 10:21:24;;;;;;;7.15;6.43;;;25.10;96.70;;;;;;5087141;28;20641;-79
2021/09/30 10:23:55;;;;;;;7.35;6.40;;;25.40;96.70;;;;;;5088188;28;20040;-79
2021/09/30 10:26:33;;;;;;;7.05;6.35;;;25.50;96.70;;;;;;5103899;28;20051;-79
2021/09/30 10:29:02;;;;;;;7.07;6.38;;;25.50;96.70;;;;;;5083557;28;20044;-79
2021/09/30 10:31:33;;;;;;;7.40;6.53;;;25.50;96.70;;;;;;5085892;28;20040;-79
2021/09/30 10:34:04;;;;;;;8.32;6.82;;;25.60;96.70;;;;;;5087962;28;20064;-79
2021/09/30 10:36:38;;;;;;;7.43;6.35;;;25.70;96.70;;;;;;5105852;28;20070;-79
2021/09/30 10:39:24;;;;;;;7.35;6.25;;;25.80;96.70;;;;;;5104976;28;20051;-79
2021/09/30 10:41:55;;;;;;;5.95;5.45;;;25.90;96.70;;;;;;5068713;28;20040;-79
2021/09/30 10:44:25;;;;;;;6.72;5.30;;;25.90;96.70;;;;;;5086959;28;20050;-79
2021/09/30 10:46:57;;;;;;;5.65;4.88;;;25.90;96.70;;;;;;5087349;28;20048;-80
2021/09/30 10:49:52;;;;;;;5.20;4.70;;;25.80;96.70;;;;;;5087387;28;20303;-80
2021/09/30 10:52:31;;;;;;;7.40;5.00;;;25.90;96.70;;;;;;5106293;28;20113;-80
2021/09/30 10:55:25;;;;;;;5.85;4.47;;;26.00;96.70;;;;;;5082892;28;20052;-80
2021/09/30 10:57:56;;;;;;;3.95;3.55;;;26.10;96.70;;;;;;5105517;28;20038;-82
2021/09/30 11:01:01;;;;;;;6.30;3.63;;;26.20;96.70;;;;;;5085536;28;20450;-81
2021/09/30 11:03:29;;;;;;;4.70;3.85;;;26.20;96.70;;;;;;5102170;28;20445;-82
2021/09/30 11:06:14;;;;;;;4.35;3.92;;;26.50;96.70;;;;;;5088167;28;20044;-82
2021/09/30 11:08:47;;;;;;;4.90;3.75;;;26.70;96.70;;;;;;5084455;28;20039;-78
2021/09/30 11:11:22;;;;;;;3.97;3.55;;;26.70;96.70;;;;;;5085512;28;20047;-78
2021/09/30 11:14:13;;;;;;;4.50;4.05;;;26.70;96.70;;;;;;5082885;28;20067;-78
2021/09/30 11:16:44;;;;;;;4.45;3.55;;;26.80;96.70;;;;;;5083419;28;20031;-78
2021/09/30 11:19:28;;;;;;;4.95;4.13;;;26.70;96.70;;;;;;5066865;28;20492;-77
2021/09/30 11:22:01;;;;;;;4.15;3.60;;;26.80;96.70;;;;;;5070211;28;20363;-77
2021/09/30 11:24:41;;;;;;;4.90;3.95;;;27.10;96.70;;;;;;5105440;28;20032;-78
2021/09/30 11:27:26;;;;;;;4.82;3.42;;;27.20;96.70;;;;;;5102409;28;21487;-78
2021/09/30 11:30:22;;;;;;;5.63;4.10;;;27.30;96.70;;;;;;5088993;28;20052;-78
2021/09/30 11:32:57;;;;;;;5.07;4.55;;;27.30;96.70;;;;;;5081265;28;20047;-78
2021/09/30 11:35:26;;;;;;;5.72;4.90;;;27.20;96.70;;;;;;5086311;28;20092;-77
2021/09/30 11:37:57;;;;;;;4.80;4.28;;;27.20;96.70;;;;;;5084001;28;20030;-78
2021/09/30 11:40:28;;;;;;;4.10;3.80;;;27.10;96.70;;;;;;5104903;28;20519;-78
2021/09/30 11:42:58;;;;;;;4.10;3.72;;;27.10;96.70;;;;;;5103110;28;20484;-78
2021/09/30 11:45:30;;;;;;;4.03;3.22;;;27.10;96.70;;;;;;5083533;28;20136;-78
2021/09/30 11:48:04;;;;;;;4.68;3.67;;;27.10;96.70;;;;;;5101421;28;20042;-78
2021/09/30 11:50:35;;;;;;;3.65;3.35;;;27.00;96.70;;;;;;5086509;28;20409;-78
2021/09/30 11:53:07;;;;;;;3.55;3.25;;;27.10;96.70;;;;;;5067375;28;20040;-77
2021/09/30 11:55:41;;;;;;;4.13;3.72;;;27.40;96.70;;;;;;5083827;28;20063;-78
2021/09/30 11:58:14;;;;;;;4.70;3.22;;;27.40;96.70;;;;;;5102319;28;20055;-77
2021/09/30 12:00:46;;;;;;;3.60;3.28;;;27.40;96.70;;;;;;5083629;28;20036;-77
2021/09/30 12:03:20;;;;;;;3.95;3.45;;;27.20;96.70;;;;;;5104552;28;20043;-78
2021/09/30 12:05:53;;;;;;;3.75;3.40;;;27.40;96.70;;;;;;5103214;28;20040;-77
2021/09/30 12:08:22;;;;;;;3.75;3.08;;;27.70;96.70;;;;;;5104557;28;20164;-77
2021/09/30 12:10:58;;;;;;;4.97;3.50;;;27.90;95.70;;;;;;5083752;28;20505;-76
2021/09/30 12:13:26;;;;;;;;;;;28.00;96.20;;;;;;5103543;28;20046;-77
2021/09/30 12:16:02;;;;;;;5.70;3.60;;;28.00;95.80;;;;;;5104330;28;19931;-77
2021/09/30 12:18:30;;;;;;;3.28;3.00;;;27.90;95.40;;;;;;5086206;28;20437;-76
2021/09/30 12:20:58;;;;;;;3.50;3.20;;;27.80;95.40;;;;;;5065466;28;20151;-77
2021/09/30 12:23:27;;;;;;;5.68;3.22;;;27.80;95.80;;;;;;5085187;28;20039;-78
2021/09/30 12:25:58;;;;;;;4.93;3.15;;;27.70;96.00;;;;;;5084778;28;20061;-79
2021/09/30 12:28:27;;;;;;;3.83;3.42;;;27.80;96.30;;;;;;5102659;28;20066;-80
2021/09/30 12:31:03;;;;;;;4.28;3.13;;;28.10;95.60;;;;;;5085371;28;20638;-80
2021/09/30 12:33:31;;;;;;;5.38;3.70;;;28.10;95.00;;;;;;5068769;28;20051;-80
2021/09/30 12:36:05;;;;;;;3.67;3.30;;;27.90;95.20;;;;;;5083502;28;20500;-78
2021/09/30 12:38:33;;;;;;;3.95;3.55;;;27.90;95.20;;;;;;5083288;28;20063;-78
2021/09/30 12:41:05;;;;;;;5.10;3.33;;;28.00;95.30;;;;;;5084328;28;20726;-78
2021/09/30 12:43:35;;;;;;;3.85;3.50;;;27.90;95.40;;;;;;5104820;28;20047;-79
2021/09/30 12:46:07;;;;;;;4.20;3.88;;;27.80;95.00;;;;;;5095861;27;20097;-78
2021/09/30 12:48:38;;;;;;;4.45;3.85;;;27.80;94.90;;;;;;5084733;28;20481;-79
2021/09/30 12:51:09;;;;;;;4.45;3.80;;;27.80;94.40;;;;;;5082942;28;20047;-79
2021/09/30 12:53:43;;;;;;;4.30;3.15;;;27.80;94.10;;;;;;5084654;28;20664;-78
2021/09/30 12:56:13;;;;;;;4.05;3.65;;;27.80;93.60;;;;;;5083985;28;20123;-79
2021/09/30 12:58:45;;;;;;;4.15;3.65;;;27.80;93.00;;;;;;5084213;28;20512;-78
2021/09/30 13:01:26;;;;;;;4.60;3.60;;;27.80;93.40;;;;;;5104028;28;20520;-78
2021/09/30 13:04:10;;;;;;;3.83;3.33;;;28.10;93.40;;;;;;5061020;28;20130;-78
2021/09/30 13:06:41;;;;;;;4.03;3.38;;;28.20;93.10;;;;;;5082145;28;20054;-77
2021/09/30 13:09:21;;;;;;;3.75;3.40;;;28.20;93.10;;;;;;5102177;28;20116;-78
2021/09/30 13:11:53;;;;;;;3.72;3.42;;;28.30;93.10;;;;;;5085487;28;20332;-76
2021/09/30 13:14:24;;;;;;;5.38;3.30;;;28.40;93.00;;;;;;5098883;28;20044;-77
2021/09/30 13:16:57;;;;;;;4.35;3.95;;;28.50;92.40;;;;;;5099770;28;20035;-77
2021/09/30 13:19:47;;;;;;;3.88;3.40;;;28.60;92.70;;;;;;5102464;28;20039;-78
2021/09/30 13:22:16;;;;;;;4.72;3.50;;;28.40;92.10;;;;;;5084303;28;20093;-78
2021/09/30 13:24:46;;;;;;;3.83;3.40;;;28.40;92.80;;;;;;5084575;28;20688;-78
2021/09/30 13:27:19;;;;;;;3.63;3.33;;;28.50;92.50;;;;;;5101249;28;20044;-77
2021/09/30 13:29:48;;;;;;;4.22;3.40;;;28.50;92.30;;;;;;5085192;28;20052;-77
2021/09/30 13:32:19;;;;;;;4.03;3.40;;;28.60;92.50;;;;;;5066293;28;20043;-77
2021/09/30 13:34:47;;;;;;;4.22;3.65;;;28.60;92.20;;;;;;5083039;28;20054;-77
2021/09/30 13:37:16;;;;;;;4.70;3.40;;;28.60;92.10;;;;;;5102527;28;20496;-77
2021/09/30 13:39:44;;;;;;;4.30;3.90;;;28.60;90.80;;;;;;5102837;28;20553;-77
2021/09/30 13:42:12;;;;;;;4.97;3.25;;;28.70;91.50;;;;;;5103461;28;20485;-77
2021/09/30 13:44:40;;;;;;;3.95;3.65;;;28.60;91.20;;;;;;5080035;28;20043;-78
2021/09/30 13:47:09;;;;;;;4.18;3.55;;;28.60;91.60;;;;;;5066451;28;20837;-77
2021/09/30 13:49:39;;;;;;;3.35;3.10;;;28.70;91.80;;;;;;5101274;28;20489;-77
2021/09/30 13:52:07;;;;;;;3.60;3.30;;;28.70;91.60;;;;;;5101047;28;20131;-77
2021/09/30 13:54:36;;;;;;;3.45;3.15;;;28.80;91.70;;;;;;5085395;28;20043;-76
2021/09/30 13:57:05;;;;;;;5.50;3.63;;;28.80;91.80;;;;;;5088537;28;20044;-76
2021/09/30 13:59:33;;;;;;;4.65;3.20;;;29.00;91.50;;;;;;5106295;28;20035;-77
2021/09/30 14:02:22;;;;;;;4.65;3.58;;;29.20;91.50;;;;;;5105867;28;20119;-77
2021/09/30 14:04:51;;;;;;;3.63;3.33;;;29.20;91.20;;;;;;5107442;28;20040;-77
2021/09/30 14:07:20;;;;;;;5.28;3.55;;;29.40;90.70;;;;;;5091473;28;20055;-77
2021/09/30 14:09:48;;;;;;;4.57;3.50;;;29.50;90.50;;;;;;5103270;27;20065;-77
2021/09/30 14:12:17;;;;;;;3.50;3.20;;;29.70;90.00;;;;;;5104309;28;20111;-76
2021/09/30 14:14:45;;;;;;;3.58;3.25;;;29.80;89.70;;;;;;5105056;28;20075;-76
2021/09/30 14:17:13;;;;;;;3.70;3.40;;;29.90;89.50;;;;;;5088840;28;20045;-77
2021/09/30 14:19:42;;;;;;;3.58;3.28;;;30.10;89.40;;;;;;5070858;28;20043;-77
2021/09/30 14:22:11;;;;;;;4.18;3.45;;;30.30;89.00;;;;;;5087897;28;20047;-77
2021/09/30 14:24:39;;;;;;;3.53;3.22;;;30.30;88.70;;;;;;5087401;28;20043;-77
2021/09/30 14:27:08;;;;;;;4.30;3.90;;;30.50;88.90;;;;;;5090718;28;20168;-77
2021/09/30 14:29:41;;;;;;;4.00;3.60;;;30.60;87.70;;;;;;5106035;28;20492;-77
2021/09/30 14:32:11;;;;;;;3.85;3.50;;;30.70;87.80;;;;;;5088395;28;20508;-76
2021/09/30 14:34:40;;;;;;;4.72;3.60;;;30.90;87.30;;;;;;5085225;28;20128;-76
2021/09/30 14:37:09;;;;;;;6.30;3.40;;;31.20;87.00;;;;;;5089634;28;20123;-77
2021/09/30 14:39:38;;;;;;;4.25;3.90;;;31.50;86.60;;;;;;5104819;28;20848;-77
2021/09/30 14:42:08;;;;;;;4.13;3.72;;;31.70;85.90;;;;;;5102594;27;20048;-77
2021/09/30 14:44:38;;;;;;;6.05;3.83;;;31.90;85.60;;;;;;5086438;28;20044;-77
2021/09/30 14:47:06;;;;;;;4.30;3.90;;;32.00;85.00;;;;;;5087015;28;20607;-77
2021/09/30 14:49:39;;;;;;;4.38;3.92;;;32.10;84.60;;;;;;5100883;28;20046;-77
2021/09/30 14:52:09;;;;;;;4.10;3.70;;;32.30;84.40;;;;;;5082674;28;20051;-78
2021/09/30 14:54:39;;;;;;;6.65;4.40;;;32.20;84.00;;;;;;5082306;28;20486;-77
2021/09/30 14:57:08;;;;;;;4.80;4.00;;;32.40;84.20;;;;;;5085069;28;20063;-77
2021/09/30 14:59:37;;;;;;;4.45;3.95;;;32.50;83.60;;;;;;5084347;28;20043;-77
2021/09/30 15:02:05;;;;;;;4.53;4.00;;;32.50;83.10;;;;;;5065334;28;20518;-77
2021/09/30 15:04:33;;;;;;;5.40;4.05;;;32.60;82.80;;;;;;5079658;28;20498;-77
2021/09/30 15:07:02;;;;;;;4.18;3.88;;;32.70;82.30;;;;;;5082025;28;20032;-77
2021/09/30 15:09:32;;;;;;;4.20;3.80;;;32.80;82.10;;;;;;5081422;28;20046;-77
2021/09/30 15:12:01;;;;;;;4.93;3.95;;;33.00;81.40;;;;;;5084973;28;20115;-78
2021/09/30 15:14:30;;;;;;;4.70;3.90;;;33.30;81.30;;;;;;5083069;28;20054;-77
2021/09/30 15:17:02;;;;;;;5.22;3.88;;;33.20;81.20;;;;;;5083465;28;20044;-77
2021/09/30 15:22:25;;;;;;;4.18;3.72;;;33.30;80.80;;;;;;5056240;28;20044;-77
2021/09/30 15:24:54;;;;;;;3.60;3.30;;;33.40;80.60;;;;;;5082255;28;20441;-77
2021/09/30 15:27:23;;;;;;;4.32;3.65;;;33.70;80.60;;;;;;5083309;28;20072;-77
2021/09/30 15:29:52;;;;;;;4.20;3.80;;;34.00;80.30;;;;;;5082850;28;20066;-78
2021/09/30 15:32:20;;;;;;;4.10;3.58;;;33.90;80.20;;;;;;5081597;28;20046;-77
2021/09/30 15:34:49;;;;;;;5.25;3.78;;;33.80;80.20;;;;;;5064480;28;20555;-77
2021/09/30 15:37:17;;;;;;;4.38;3.83;;;33.70;80.00;;;;;;5066237;28;20131;-77
2021/09/30 15:39:45;;;;;;;4.95;3.72;;;33.30;80.60;;;;;;5083224;28;20400;-77
2021/09/30 15:42:16;;;;;;;4.82;3.70;;;32.50;81.90;;;;;;5081319;28;20112;-78
2021/09/30 15:44:46;;;;;;;6.85;4.10;;;31.50;83.80;;;;;;5064910;28;20396;-78
2021/09/30 15:47:14;;;;;;;3.83;3.40;;;30.70;85.70;;;;;;5083130;28;20055;-78
2021/09/30 15:49:42;;;;;;;4.13;3.60;;;30.10;87.10;;;;;;5085148;28;20123;-77
2021/09/30 15:52:10;;;;;;;4.97;3.92;;;29.70;88.10;;;;;;5079443;28;20098;-77
2021/09/30 15:54:40;;;;;;;4.80;3.88;;;29.40;89.30;;;;;;5067681;28;20142;-78
2021/09/30 15:57:08;;;;;;;4.63;3.17;;;29.10;90.20;;;;;;5083457;28;20040;-77
2021/09/30 15:59:36;;;;;;;3.90;3.53;;;28.90;91.10;;;;;;5084629;28;20138;-77
2021/09/30 16:02:06;;;;;;;3.88;3.45;;;28.70;91.60;;;;;;5084156;28;20040;-77
2021/09/30 16:04:34;;;;;;;6.07;3.20;;;28.50;92.10;;;;;;5084283;28;20058;-77
2021/09/30 16:07:03;;;;;;;4.43;3.28;;;28.30;92.50;;;;;;5081987;28;20136;-77
2021/09/30 16:09:31;;;;;;;4.43;3.28;;;28.20;93.20;;;;;;5084634;28;20368;-77